createdAt,value
2023-04-04T00:00:35.041Z,-1.78
2023-04-04T00:03:14.996Z,-1.80
2023-04-04T00:05:42.839Z,-1.84
2023-04-04T00:08:09.788Z,-1.87
2023-04-04T00:10:37.072Z,-1.88
2023-04-04T00:13:05.772Z,-1.88
2023-04-04T00:15:34.718Z,-1.93
2023-04-04T00:18:02.879Z,-1.90
2023-04-04T00:20:31.146Z,-1.88
2023-04-04T00:22:58.188Z,-1.84
2023-04-04T00:25:25.742Z,-1.80
2023-04-04T00:27:52.783Z,-1.76
2023-04-04T00:30:20.207Z,-1.75
2023-04-04T00:32:47.181Z,-1.67
2023-04-04T00:35:14.725Z,-1.62
2023-04-04T00:37:41.703Z,-1.60
2023-04-04T00:40:09.363Z,-1.57
2023-04-04T00:42:37.438Z,-1.55
2023-04-04T00:45:08.146Z,-1.52
2023-04-04T00:47:35.961Z,-1.51
2023-04-04T00:50:03.434Z,-1.49
2023-04-04T00:52:30.344Z,-1.47
2023-04-04T00:54:57.842Z,-1.44
2023-04-04T00:57:24.951Z,-1.43
2023-04-04T00:59:52.398Z,-1.42
2023-04-04T01:02:19.390Z,-1.40
2023-04-04T01:04:47.310Z,-1.41
2023-04-04T01:07:14.377Z,-1.40
2023-04-04T01:09:42.145Z,-1.39
2023-04-04T01:12:09.356Z,-1.37
2023-04-04T01:14:36.579Z,-1.38
2023-04-04T01:17:03.716Z,-1.37
2023-04-04T01:19:36.982Z,-1.36
2023-04-04T01:22:06.184Z,-1.36
2023-04-04T01:24:34.979Z,-1.36
2023-04-04T01:27:02.171Z,-1.34
2023-04-04T01:29:29.381Z,-1.32
2023-04-04T01:32:21.060Z,-1.31
2023-04-04T01:35:13.053Z,-1.31
2023-04-04T01:37:52.967Z,-1.30
2023-04-04T01:40:27.250Z,-1.30
2023-04-04T01:42:55.584Z,-1.27
2023-04-04T01:45:23.286Z,-1.30
2023-04-04T01:47:50.131Z,-1.28
2023-04-04T01:50:17.420Z,-1.26
2023-04-04T01:52:44.602Z,-1.25
2023-04-04T01:55:11.770Z,-1.26
2023-04-04T01:57:38.625Z,-1.24
2023-04-04T02:00:06.550Z,-1.24
2023-04-04T02:02:33.629Z,-1.23
2023-04-04T02:05:00.825Z,-1.22
2023-04-04T02:07:27.805Z,-1.20
2023-04-04T02:09:54.985Z,-1.21
2023-04-04T02:12:22.455Z,-1.22
2023-04-04T02:14:49.632Z,-1.22
2023-04-04T02:17:16.888Z,-1.22
2023-04-04T02:19:44.089Z,-1.21
2023-04-04T02:22:11.078Z,-1.21
2023-04-04T02:24:38.316Z,-1.22
2023-04-04T02:27:05.287Z,-1.21
2023-04-04T02:29:32.482Z,-1.22
2023-04-04T02:31:59.333Z,-1.24
2023-04-04T02:34:26.656Z,-1.21
2023-04-04T02:36:53.532Z,-1.21
2023-04-04T02:39:20.825Z,-1.21
2023-04-04T02:41:47.794Z,-1.21
2023-04-04T02:44:14.988Z,-1.21
2023-04-04T02:46:42.466Z,-1.21
2023-04-04T02:49:09.592Z,-1.22
2023-04-04T02:51:36.943Z,-1.22
2023-04-04T02:54:05.358Z,-1.24
2023-04-04T02:56:32.411Z,-1.29
2023-04-04T02:58:59.599Z,-1.31
2023-04-04T03:01:26.609Z,-1.38
2023-04-04T03:03:54.121Z,-1.46
2023-04-04T03:06:21.026Z,-1.52
2023-04-04T03:08:48.312Z,-1.61
2023-04-04T03:11:20.102Z,-1.70
2023-04-04T03:13:47.784Z,-1.77
2023-04-04T03:16:16.501Z,-1.86
2023-04-04T03:18:44.777Z,-1.97
2023-04-04T03:21:11.736Z,-2.04
2023-04-04T03:23:38.909Z,-2.12
2023-04-04T03:26:05.829Z,-2.18
2023-04-04T03:28:33.015Z,-2.26
2023-04-04T03:31:06.464Z,-2.33
2023-04-04T03:33:38.210Z,-2.39
2023-04-04T03:36:14.868Z,-2.45
2023-04-04T03:38:42.369Z,-2.51
2023-04-04T03:41:09.354Z,-2.55
2023-04-04T03:43:36.687Z,-2.60
2023-04-04T03:46:04.896Z,-2.65
2023-04-04T03:48:32.262Z,-2.70
2023-04-04T03:50:59.406Z,-2.75
2023-04-04T03:53:27.155Z,-2.80
2023-04-04T03:55:56.742Z,-2.82
2023-04-04T03:58:24.288Z,-2.86
2023-04-04T04:00:51.278Z,-2.88
2023-04-04T04:03:18.689Z,-2.89
2023-04-04T04:05:45.802Z,-2.90
2023-04-04T04:08:13.413Z,-2.89
2023-04-04T04:10:40.812Z,-2.90
2023-04-04T04:13:08.665Z,-2.85
2023-04-04T04:15:35.649Z,-2.78
2023-04-04T04:18:02.946Z,-2.65
2023-04-04T04:20:29.917Z,-2.57
2023-04-04T04:22:57.117Z,-2.51
2023-04-04T04:25:24.132Z,-2.49
2023-04-04T04:27:51.321Z,-2.49
2023-04-04T04:30:18.157Z,-2.48
2023-04-04T04:32:45.519Z,-2.47
2023-04-04T04:35:12.541Z,-2.46
2023-04-04T04:37:39.717Z,-2.42
2023-04-04T04:40:07.299Z,-2.33
2023-04-04T04:42:34.627Z,-2.24
2023-04-04T04:45:01.588Z,-2.15
2023-04-04T04:47:31.956Z,-1.92
2023-04-04T04:49:58.821Z,-1.43
2023-04-04T04:52:26.460Z,-0.88
2023-04-04T04:54:55.957Z,-0.57
2023-04-04T04:57:23.316Z,-0.41
2023-04-04T04:59:50.143Z,-0.32
2023-04-04T05:02:17.357Z,0.09
2023-04-04T05:04:45.463Z,0.72
2023-04-04T05:07:12.791Z,1.48
2023-04-04T05:09:39.716Z,2.27
2023-04-04T05:12:07.878Z,3.12
2023-04-04T05:14:34.749Z,3.93
2023-04-04T05:17:02.143Z,4.68
2023-04-04T05:19:29.319Z,5.38
2023-04-04T05:21:56.472Z,5.99
2023-04-04T05:24:23.532Z,6.56
2023-04-04T05:26:50.754Z,7.10
2023-04-04T05:29:17.607Z,7.60
2023-04-04T05:31:44.819Z,7.90
2023-04-04T05:34:11.825Z,8.15
2023-04-04T05:36:39.080Z,8.33
2023-04-04T05:39:06.423Z,8.42
2023-04-04T05:41:33.672Z,8.47
2023-04-04T05:44:00.619Z,8.51
2023-04-04T05:46:27.832Z,8.36
2023-04-04T05:48:54.768Z,8.26
2023-04-04T05:51:21.992Z,8.07
2023-04-04T05:53:49.023Z,7.93
2023-04-04T05:56:16.707Z,7.92
2023-04-04T05:58:45.190Z,7.72
2023-04-04T06:01:12.635Z,7.64
2023-04-04T06:03:39.614Z,7.59
2023-04-04T06:06:07.604Z,7.36
2023-04-04T06:08:50.207Z,7.02
2023-04-04T06:11:19.998Z,6.59
2023-04-04T06:13:46.827Z,6.43
2023-04-04T06:16:14.254Z,6.30
2023-04-04T06:18:41.557Z,6.25
2023-04-04T06:21:08.812Z,6.37
2023-04-04T06:23:37.830Z,6.34
2023-04-04T06:26:05.859Z,6.14
2023-04-04T06:28:32.721Z,6.18
2023-04-04T06:31:00.140Z,6.39
2023-04-04T06:33:27.065Z,6.59
2023-04-04T06:35:54.236Z,6.54
2023-04-04T06:38:21.336Z,6.37
2023-04-04T06:40:48.525Z,6.41
2023-04-04T06:43:15.475Z,6.80
2023-04-04T06:45:42.680Z,7.21
2023-04-04T06:48:09.636Z,7.72
2023-04-04T06:50:37.790Z,8.11
2023-04-04T06:53:06.654Z,8.35
2023-04-04T06:55:34.641Z,8.65
2023-04-04T06:58:02.077Z,9.09
2023-04-04T07:00:29.337Z,9.41
2023-04-04T07:03:00.530Z,9.42
2023-04-04T07:05:27.821Z,9.29
2023-04-04T07:07:57.054Z,9.21
2023-04-04T07:10:24.922Z,9.07
2023-04-04T07:12:51.893Z,8.83
2023-04-04T07:15:19.119Z,8.60
2023-04-04T07:17:45.997Z,8.53
2023-04-04T07:20:13.534Z,8.81
2023-04-04T07:22:41.121Z,9.45
2023-04-04T07:25:09.674Z,10.13
2023-04-04T07:27:37.092Z,10.72
2023-04-04T07:30:05.312Z,11.40
2023-04-04T07:32:32.369Z,12.10
2023-04-04T07:34:59.639Z,12.56
2023-04-04T07:37:29.267Z,13.06
2023-04-04T07:39:56.907Z,13.45
2023-04-04T07:42:23.818Z,13.60
2023-04-04T07:44:52.141Z,13.53
2023-04-04T07:47:19.064Z,13.48
2023-04-04T07:49:46.611Z,13.67
2023-04-04T07:52:13.493Z,13.78
2023-04-04T07:54:40.766Z,14.06
2023-04-04T07:57:09.959Z,14.44
2023-04-04T07:59:37.922Z,14.75
2023-04-04T08:02:04.906Z,14.65
2023-04-04T08:04:32.195Z,14.60
2023-04-04T08:06:59.245Z,14.80
2023-04-04T08:09:28.505Z,15.27
2023-04-04T08:11:55.548Z,15.09
2023-04-04T08:14:22.762Z,14.90
2023-04-04T08:16:49.678Z,14.76
2023-04-04T08:19:17.842Z,14.60
2023-04-04T08:21:45.650Z,14.27
2023-04-04T08:24:13.158Z,14.17
2023-04-04T08:26:40.000Z,14.23
2023-04-04T08:29:07.936Z,14.36
2023-04-04T08:31:35.038Z,14.76
2023-04-04T08:34:02.598Z,15.47
2023-04-04T08:36:30.748Z,15.85
2023-04-04T08:38:57.930Z,15.18
2023-04-04T08:41:25.461Z,14.48
2023-04-04T08:43:56.861Z,12.89
2023-04-04T08:46:25.904Z,11.19
2023-04-04T08:48:54.488Z,9.93
2023-04-04T08:51:26.324Z,9.06
2023-04-04T08:53:54.468Z,8.28
2023-04-04T08:56:21.848Z,7.67
2023-04-04T08:58:49.160Z,7.21
2023-04-04T09:01:16.626Z,6.88
2023-04-04T09:03:45.148Z,6.82
2023-04-04T09:06:13.808Z,7.45
2023-04-04T09:08:41.932Z,8.11
2023-04-04T09:11:09.527Z,9.29
2023-04-04T09:13:37.877Z,9.63
2023-04-04T09:16:06.178Z,9.44
2023-04-04T09:18:33.430Z,10.31
2023-04-04T09:21:08.656Z,10.78
2023-04-04T09:23:35.845Z,11.10
2023-04-04T09:26:04.417Z,10.70
2023-04-04T09:28:32.537Z,9.92
2023-04-04T09:31:05.724Z,9.13
2023-04-04T09:33:34.474Z,8.73
2023-04-04T09:36:11.269Z,8.65
2023-04-04T09:38:45.602Z,8.44
2023-04-04T09:41:16.630Z,8.10
2023-04-04T09:43:45.553Z,7.77
2023-04-04T09:46:12.861Z,7.40
2023-04-04T09:48:40.353Z,7.52
2023-04-04T09:51:07.918Z,7.62
2023-04-04T09:53:39.777Z,7.48
2023-04-04T09:56:07.343Z,7.28
2023-04-04T09:58:40.449Z,7.65
2023-04-04T10:01:13.013Z,7.94
2023-04-04T10:03:40.317Z,7.66
2023-04-04T10:06:09.937Z,7.21
2023-04-04T10:08:41.321Z,6.75
2023-04-04T10:11:11.495Z,6.33
2023-04-04T10:13:41.743Z,6.05
2023-04-04T10:16:09.348Z,5.98
2023-04-04T10:18:37.158Z,5.96
2023-04-04T10:21:15.297Z,5.94
2023-04-04T10:23:46.553Z,5.81
2023-04-04T10:26:13.785Z,5.76
2023-04-04T10:28:42.601Z,5.69
2023-04-04T10:31:18.443Z,5.73
2023-04-04T10:34:11.805Z,5.83
2023-04-04T10:36:51.879Z,5.85
2023-04-04T10:39:26.104Z,5.81
2023-04-04T10:41:53.840Z,5.91
2023-04-04T10:44:29.585Z,6.13
2023-04-04T10:46:58.944Z,6.39
2023-04-04T10:49:28.022Z,6.76
2023-04-04T10:51:57.401Z,7.28
2023-04-04T10:54:27.950Z,7.82
2023-04-04T10:57:00.955Z,9.12
2023-04-04T10:59:28.470Z,10.06
2023-04-04T11:01:55.642Z,10.05
2023-04-04T11:04:33.844Z,10.32
2023-04-04T11:07:07.089Z,10.26
2023-04-04T11:09:56.615Z,10.38
2023-04-04T11:12:27.779Z,10.65
2023-04-04T11:15:00.829Z,11.34
2023-04-04T11:17:58.445Z,12.13
2023-04-04T11:20:31.866Z,12.42
2023-04-04T11:23:17.051Z,11.82
2023-04-04T11:25:57.500Z,10.63
2023-04-04T11:28:45.137Z,9.46
2023-04-04T11:31:18.556Z,8.53
2023-04-04T11:34:03.939Z,7.58
2023-04-04T11:36:37.384Z,7.18
2023-04-04T11:39:31.279Z,6.95
2023-04-04T11:42:11.585Z,6.79
2023-04-04T11:45:04.864Z,6.84
2023-04-04T11:47:32.341Z,7.19
2023-04-04T11:50:01.334Z,7.16
2023-04-04T11:52:35.582Z,6.77
2023-04-04T11:55:03.021Z,6.40
2023-04-04T11:57:30.804Z,6.12
2023-04-04T11:59:57.865Z,6.00
2023-04-04T12:02:34.425Z,6.09
2023-04-04T12:05:01.636Z,6.33
2023-04-04T12:07:30.400Z,6.62
2023-04-04T12:09:58.737Z,6.96
2023-04-04T12:12:27.789Z,7.38
2023-04-04T12:15:06.251Z,7.55
2023-04-04T12:17:43.541Z,7.41
2023-04-04T12:20:11.521Z,7.12
2023-04-04T12:22:38.711Z,6.81
2023-04-04T12:25:06.385Z,6.65
2023-04-04T12:27:34.246Z,6.80
2023-04-04T12:30:01.618Z,6.92
2023-04-04T12:32:29.520Z,7.20
2023-04-04T12:35:01.343Z,7.81
2023-04-04T12:37:29.756Z,8.61
2023-04-04T12:39:56.804Z,8.82
2023-04-04T12:42:25.706Z,8.56
2023-04-04T12:44:53.994Z,8.18
2023-04-04T12:47:24.304Z,7.66
2023-04-04T12:49:54.960Z,7.26
2023-04-04T12:52:27.836Z,7.06
2023-04-04T12:55:06.770Z,6.97
2023-04-04T12:57:36.994Z,6.91
2023-04-04T13:00:06.451Z,6.90
2023-04-04T13:02:36.229Z,6.91
2023-04-04T13:05:03.751Z,6.91
2023-04-04T13:07:34.947Z,6.89
2023-04-04T13:10:04.735Z,6.80
2023-04-04T13:12:58.405Z,6.78
2023-04-04T13:15:52.476Z,6.61
2023-04-04T13:18:22.631Z,6.40
2023-04-04T13:20:50.501Z,6.16
2023-04-04T13:23:18.362Z,6.00
2023-04-04T13:25:45.283Z,5.91
2023-04-04T13:28:12.802Z,5.87
2023-04-04T13:30:43.646Z,5.82
2023-04-04T13:33:11.371Z,5.73
2023-04-04T13:35:39.144Z,5.66
2023-04-04T13:38:07.062Z,5.72
2023-04-04T13:40:33.967Z,5.83
2023-04-04T13:43:01.139Z,5.77
2023-04-04T13:45:28.189Z,5.62
2023-04-04T13:47:55.446Z,5.27
2023-04-04T13:50:23.013Z,4.94
2023-04-04T13:52:54.108Z,4.59
2023-04-04T13:55:21.982Z,4.36
2023-04-04T13:57:49.135Z,4.23
2023-04-04T14:00:16.766Z,4.15
2023-04-04T14:02:43.950Z,4.17
2023-04-04T14:05:11.044Z,4.23
2023-04-04T14:07:38.450Z,4.32
2023-04-04T14:10:06.005Z,4.42
2023-04-04T14:12:33.314Z,4.41
2023-04-04T14:15:00.205Z,4.47
2023-04-04T14:17:27.624Z,4.53
2023-04-04T14:19:54.576Z,4.57
2023-04-04T14:22:21.820Z,4.53
2023-04-04T14:24:48.766Z,4.39
2023-04-04T14:27:16.062Z,4.29
2023-04-04T14:29:43.099Z,4.21
2023-04-04T14:32:11.610Z,4.06
2023-04-04T14:34:38.486Z,3.94
2023-04-04T14:37:06.172Z,3.85
2023-04-04T14:39:33.302Z,3.79
2023-04-04T14:42:00.624Z,3.69
2023-04-04T14:44:27.627Z,3.58
2023-04-04T14:46:54.892Z,3.45
2023-04-04T14:49:21.854Z,3.30
2023-04-04T14:51:49.094Z,3.21
2023-04-04T14:54:16.286Z,3.19
2023-04-04T14:56:44.887Z,3.16
2023-04-04T14:59:11.950Z,3.12
2023-04-04T15:01:39.229Z,3.12
2023-04-04T15:04:07.390Z,3.17
2023-04-04T15:06:37.970Z,3.29
2023-04-04T15:09:06.224Z,3.46
2023-04-04T15:11:35.413Z,3.54
2023-04-04T15:14:02.467Z,3.61
2023-04-04T15:16:33.214Z,3.67
2023-04-04T15:19:00.765Z,3.70
2023-04-04T15:21:28.951Z,3.70
2023-04-04T15:23:56.008Z,3.67
2023-04-04T15:26:23.700Z,3.60
2023-04-04T15:28:50.621Z,3.53
2023-04-04T15:31:17.839Z,3.44
2023-04-04T15:33:44.703Z,3.32
2023-04-04T15:36:11.919Z,3.24
2023-04-04T15:38:39.602Z,3.17
2023-04-04T15:41:08.780Z,3.07
2023-04-04T15:43:36.783Z,2.99
2023-04-04T15:46:04.516Z,2.87
2023-04-04T15:48:31.556Z,2.81
2023-04-04T15:51:02.401Z,2.74
2023-04-04T15:53:33.467Z,2.71
2023-04-04T15:56:02.023Z,2.71
2023-04-04T15:58:28.911Z,2.70
2023-04-04T16:00:56.251Z,2.67
2023-04-04T16:03:24.687Z,2.65
2023-04-04T16:05:52.329Z,2.63
2023-04-04T16:08:19.298Z,2.59
2023-04-04T16:10:46.487Z,2.55
2023-04-04T16:13:14.125Z,2.52
2023-04-04T16:15:41.399Z,2.45
2023-04-04T16:18:08.973Z,2.41
2023-04-04T16:20:36.948Z,2.38
2023-04-04T16:23:03.908Z,2.34
2023-04-04T16:25:31.341Z,2.29
2023-04-04T16:27:58.279Z,2.27
2023-04-04T16:30:25.507Z,2.24
2023-04-04T16:32:52.556Z,2.21
2023-04-04T16:35:19.889Z,2.20
2023-04-04T16:37:47.445Z,2.17
2023-04-04T16:40:15.540Z,2.13
2023-04-04T16:42:42.576Z,2.11
2023-04-04T16:45:10.500Z,2.08
2023-04-04T16:47:37.651Z,2.04
2023-04-04T16:50:06.558Z,2.02
2023-04-04T16:52:33.472Z,2.01
2023-04-04T16:55:00.687Z,1.97
2023-04-04T16:57:27.578Z,1.97
2023-04-04T16:59:54.865Z,1.95
2023-04-04T17:02:21.773Z,1.94
2023-04-04T17:04:49.193Z,1.91
2023-04-04T17:07:16.172Z,1.89
2023-04-04T17:09:43.431Z,1.82
2023-04-04T17:12:10.372Z,1.76
2023-04-04T17:14:37.797Z,1.74
2023-04-04T17:17:05.604Z,1.71
2023-04-04T17:19:35.095Z,1.70
2023-04-04T17:22:02.354Z,1.68
2023-04-04T17:24:29.638Z,1.67
2023-04-04T17:26:58.429Z,1.63
2023-04-04T17:29:27.058Z,1.55
2023-04-04T17:31:56.225Z,1.50
2023-04-04T17:34:24.083Z,1.49
2023-04-04T17:36:53.034Z,1.47
2023-04-04T17:39:20.322Z,1.47
2023-04-04T17:41:50.068Z,1.45
2023-04-04T17:44:19.208Z,1.43
2023-04-04T17:46:46.710Z,1.41
2023-04-04T17:49:19.537Z,1.39
2023-04-04T17:51:48.256Z,1.37
2023-04-04T17:54:15.835Z,1.37
2023-04-04T17:56:46.178Z,1.36
2023-04-04T17:59:14.832Z,1.35
2023-04-04T18:01:41.954Z,1.34
2023-04-04T18:04:09.710Z,1.34
2023-04-04T18:06:40.162Z,1.34
2023-04-04T18:09:09.237Z,1.32
2023-04-04T18:11:36.964Z,1.27
2023-04-04T18:14:04.405Z,1.24
2023-04-04T18:16:38.905Z,1.25
2023-04-04T18:19:09.607Z,1.25
2023-04-04T18:21:37.637Z,1.22
2023-04-04T18:24:07.568Z,1.22
2023-04-04T18:26:34.449Z,1.18
2023-04-04T18:29:01.564Z,1.18
2023-04-04T18:31:28.677Z,1.15
2023-04-04T18:33:56.849Z,1.16
2023-04-04T18:36:23.863Z,1.13
2023-04-04T18:38:51.231Z,1.10
2023-04-04T18:41:18.106Z,1.13
2023-04-04T18:43:46.469Z,1.13
2023-04-04T18:46:13.365Z,1.13
2023-04-04T18:48:41.542Z,1.12
2023-04-04T18:51:08.584Z,1.08
2023-04-04T18:53:35.789Z,1.08
2023-04-04T18:56:02.683Z,1.07
2023-04-04T18:58:32.265Z,1.05
2023-04-04T19:00:59.271Z,1.04
2023-04-04T19:03:26.759Z,1.02
2023-04-04T19:05:54.300Z,0.99
2023-04-04T19:08:21.832Z,0.99
2023-04-04T19:10:51.213Z,0.98
2023-04-04T19:13:18.671Z,0.94
2023-04-04T19:15:45.721Z,0.93
2023-04-04T19:18:12.965Z,0.94
2023-04-04T19:20:42.199Z,0.92
2023-04-04T19:23:10.412Z,0.87
2023-04-04T19:25:37.373Z,0.83
2023-04-04T19:28:04.722Z,0.81
2023-04-04T19:30:45.025Z,0.78
2023-04-04T19:33:16.852Z,0.81
2023-04-04T19:35:59.846Z,0.77
2023-04-04T19:38:33.014Z,0.76
2023-04-04T19:41:02.015Z,0.74
2023-04-04T19:43:30.494Z,0.72
2023-04-04T19:46:05.058Z,0.71
2023-04-04T19:48:52.776Z,0.67
2023-04-04T19:51:22.504Z,0.68
2023-04-04T19:53:54.702Z,0.70
2023-04-04T19:56:24.994Z,0.66
2023-04-04T19:58:55.078Z,0.67
2023-04-04T20:01:28.049Z,0.65
2023-04-04T20:04:06.898Z,0.64
2023-04-04T20:06:35.648Z,0.63
2023-04-04T20:09:10.416Z,0.60
2023-04-04T20:11:37.336Z,0.62
2023-04-04T20:14:09.270Z,0.61
2023-04-04T20:16:36.809Z,0.60
2023-04-04T20:19:06.827Z,0.58
2023-04-04T20:21:35.826Z,0.58
2023-04-04T20:24:10.155Z,0.53
2023-04-04T20:26:59.288Z,0.53
2023-04-04T20:29:29.673Z,0.52
2023-04-04T20:32:02.245Z,0.50
2023-04-04T20:34:38.671Z,0.51
2023-04-04T20:37:09.492Z,0.50
2023-04-04T20:39:45.630Z,0.50
2023-04-04T20:42:27.875Z,0.47
2023-04-04T20:44:58.716Z,0.45
2023-04-04T20:47:41.286Z,0.44
2023-04-04T20:50:20.767Z,0.43
2023-04-04T20:52:49.738Z,0.40
2023-04-04T20:55:22.907Z,0.39
2023-04-04T20:57:52.225Z,0.39
2023-04-04T21:00:25.698Z,0.37
2023-04-04T21:02:56.725Z,0.36
2023-04-04T21:05:34.937Z,0.36
2023-04-04T21:08:03.046Z,0.34
2023-04-04T21:10:30.117Z,0.32
2023-04-04T21:12:58.710Z,0.33
2023-04-04T21:15:33.675Z,0.32
2023-04-04T21:18:06.674Z,0.31
2023-04-04T21:20:49.619Z,0.29
2023-04-04T21:23:25.554Z,0.28
2023-04-04T21:26:00.117Z,0.29
2023-04-04T21:28:42.142Z,0.29
2023-04-04T21:31:13.569Z,0.28
2023-04-04T21:33:44.909Z,0.25
2023-04-04T21:36:32.768Z,0.19
2023-04-04T21:39:06.969Z,0.20
2023-04-04T21:41:35.069Z,0.20
2023-04-04T21:44:09.645Z,0.18
2023-04-04T21:46:39.022Z,0.18
2023-04-04T21:49:07.729Z,0.18
2023-04-04T21:51:35.649Z,0.18
2023-04-04T21:54:02.981Z,0.16
2023-04-04T21:56:32.889Z,0.14
2023-04-04T21:59:04.473Z,0.13
2023-04-04T22:01:31.891Z,0.11
2023-04-04T22:03:59.249Z,0.11
2023-04-04T22:06:27.501Z,0.11
2023-04-04T22:08:59.568Z,0.08
2023-04-04T22:11:27.633Z,0.05
2023-04-04T22:14:07.401Z,0.05
2023-04-04T22:16:39.632Z,0.02
2023-04-04T22:19:07.840Z,-0.01
2023-04-04T22:21:37.040Z,-0.03
2023-04-04T22:24:05.958Z,-0.04
2023-04-04T22:26:33.797Z,-0.04
2023-04-04T22:29:03.199Z,-0.05
2023-04-04T22:31:31.283Z,-0.07
2023-04-04T22:33:58.299Z,-0.09
2023-04-04T22:36:25.514Z,-0.10
2023-04-04T22:38:57.153Z,-0.11
2023-04-04T22:41:29.310Z,-0.13
2023-04-04T22:43:57.664Z,-0.13
2023-04-04T22:46:26.177Z,-0.17
2023-04-04T22:49:04.943Z,-0.18
2023-04-04T22:51:35.251Z,-0.18
2023-04-04T22:54:02.525Z,-0.26
2023-04-04T22:56:29.770Z,-0.27
2023-04-04T22:58:56.878Z,-0.29
2023-04-04T23:01:24.098Z,-0.31
2023-04-04T23:03:51.496Z,-0.32
2023-04-04T23:06:19.999Z,-0.36
2023-04-04T23:08:47.090Z,-0.37
2023-04-04T23:11:14.223Z,-0.40
2023-04-04T23:13:43.304Z,-0.46
2023-04-04T23:16:10.826Z,-0.50
2023-04-04T23:18:37.722Z,-0.57
2023-04-04T23:21:04.905Z,-0.65
2023-04-04T23:23:31.822Z,-0.73
2023-04-04T23:25:59.123Z,-0.81
2023-04-04T23:28:29.439Z,-0.92
2023-04-04T23:30:56.783Z,-1.01
2023-04-04T23:33:23.753Z,-1.09
2023-04-04T23:35:51.131Z,-1.20
2023-04-04T23:38:19.401Z,-1.30
2023-04-04T23:40:46.592Z,-1.40
2023-04-04T23:43:13.879Z,-1.49
2023-04-04T23:45:41.398Z,-1.58
2023-04-04T23:48:08.656Z,-1.67
2023-04-04T23:50:35.907Z,-1.76
2023-04-04T23:53:03.094Z,-1.84
2023-04-04T23:55:29.989Z,-1.92
2023-04-04T23:58:00.955Z,-1.99
